Time;durP1;ratioP1;P1;durP2;ratioP2;P2;SDS_P1;SDS_P2;PMS_P1;PMS_P2;Temp;Humidity;BMP_temperature;BMP_pressure;BME280_temperature;BME280_humidity;BME280_pressure;Samples;Min_cycle;Max_cycle;Signal;HPM_P1;HPM_P2
2023/07/11 00:00:06;;;;;;;5.60;2.10;;;;;;;14.87;100.00;101736.28;5019471;28;20717;-48
2023/07/11 00:02:33;;;;;;;5.82;2.35;;;;;;;14.72;100.00;101731.53;5019882;28;20299;-46
2023/07/11 00:05:00;;;;;;;6.25;2.38;;;;;;;14.72;100.00;101737.78;5023707;28;20219;-49
2023/07/11 00:07:26;;;;;;;5.35;2.63;;;;;;;14.57;100.00;101743.81;5016289;28;20629;-49
2023/07/11 00:09:52;;;;;;;6.20;2.30;;;;;;;14.56;100.00;101740.25;5019691;28;20204;-49
2023/07/11 00:12:17;;;;;;;4.15;2.38;;;;;;;14.60;100.00;101738.28;5019452;28;20192;-50
2023/07/11 00:14:44;;;;;;;4.82;2.42;;;;;;;14.38;100.00;101735.53;5017854;28;20658;-48
2023/07/11 00:17:10;;;;;;;6.15;2.78;;;;;;;14.39;100.00;101737.31;5019988;28;20168;-47
2023/07/11 00:19:56;;;;;;;8.98;2.83;;;;;;;14.38;100.00;101727.44;5017851;28;20198;-47
2023/07/11 00:22:24;;;;;;;6.53;2.95;;;;;;;14.26;100.00;101733.34;5016968;28;20215;-47
2023/07/11 00:24:50;;;;;;;6.88;2.78;;;;;;;14.25;100.00;101729.75;5019494;28;20698;-47
2023/07/11 00:27:18;;;;;;;6.65;2.75;;;;;;;14.27;100.00;101725.16;5024959;28;20258;-48
2023/07/11 00:29:44;;;;;;;7.88;2.67;;;;;;;14.24;100.00;101733.38;5019824;28;20200;-47
2023/07/11 00:32:11;;;;;;;5.05;2.45;;;;;;;14.29;100.00;101731.38;5014510;28;20644;-47
2023/07/11 00:34:37;;;;;;;4.43;2.50;;;;;;;14.16;100.00;101738.19;5020515;28;20694;-48
2023/07/11 00:37:03;;;;;;;5.20;2.42;;;;;;;14.23;100.00;101731.63;5023391;28;20239;-47
2023/07/11 00:39:31;;;;;;;4.95;2.47;;;;;;;14.16;100.00;101738.19;5011731;28;20747;-47
2023/07/11 00:41:57;;;;;;;6.70;2.38;;;;;;;14.10;100.00;101743.81;5031508;28;20511;-46
2023/07/11 00:44:23;;;;;;;5.70;2.60;;;;;;;14.01;100.00;101727.09;5019408;28;20301;-47
2023/07/11 00:46:50;;;;;;;7.70;2.85;;;;;;;13.94;100.00;101738.13;5011611;28;20192;-48
2023/07/11 00:49:18;;;;;;;5.85;2.65;;;;;;;13.96;100.00;101728.19;5019668;28;20191;-47
2023/07/11 00:51:58;;;;;;;4.95;2.78;;;;;;;14.10;100.00;101720.47;5011555;28;20180;-47
2023/07/11 00:54:35;;;;;;;7.30;2.85;;;;;;;14.01;100.00;101727.09;5016849;28;20671;-48
2023/07/11 00:57:04;;;;;;;5.45;2.95;;;;;;;14.07;100.00;101717.88;5019772;28;20223;-46
2023/07/11 00:59:30;;;;;;;7.07;2.80;;;;;;;14.07;100.00;101708.91;5016067;28;20203;-48
2023/07/11 01:02:02;;;;;;;4.88;2.72;;;;;;;14.01;100.00;101713.59;5018539;28;20775;-48
2023/07/11 01:04:29;;;;;;;6.65;2.67;;;;;;;14.00;100.00;101713.66;5014664;28;20205;-47
2023/07/11 01:06:54;;;;;;;7.55;3.08;;;;;;;14.06;100.00;101704.44;5014567;28;20209;-47
2023/07/11 01:09:21;;;;;;;5.03;2.58;;;;;;;14.00;100.00;101701.06;5019678;28;20664;-48
2023/07/11 01:11:59;;;;;;;5.82;2.38;;;;;;;14.03;100.00;101708.13;5015554;28;20196;-48
2023/07/11 01:14:26;;;;;;;7.45;2.88;;;;;;;14.04;100.00;101691.06;5015005;28;20235;-47
2023/07/11 01:16:51;;;;;;;6.95;2.90;;;;;;;14.06;100.00;101696.34;5013975;28;20191;-47
2023/07/11 01:19:20;;;;;;;4.13;2.47;;;;;;;14.16;100.00;101692.38;5013709;28;20590;-47
2023/07/11 01:21:46;;;;;;;3.90;2.22;;;;;;;14.15;100.00;101696.03;5020208;28;20692;-47
2023/07/11 01:24:12;;;;;;;3.30;2.25;;;;;;;14.10;100.00;101700.69;5019037;28;20169;-47
2023/07/11 01:26:38;;;;;;;6.25;2.40;;;;;;;14.03;100.00;101691.97;5023581;28;20645;-47
2023/07/11 01:29:04;;;;;;;3.65;2.33;;;;;;;13.93;100.00;101688.78;5017039;28;20246;-47
2023/07/11 01:31:33;;;;;;;4.82;2.50;;;;;;;13.95;100.00;101692.28;5021220;28;20691;-47
2023/07/11 01:34:04;;;;;;;3.92;2.35;;;;;;;13.86;100.00;101687.22;5018294;28;20276;-47
2023/07/11 01:36:30;;;;;;;3.97;2.65;;;;;;;13.94;100.00;101681.56;5015771;28;20199;-49
2023/07/11 01:38:57;;;;;;;5.50;2.40;;;;;;;13.91;100.00;101687.06;5049882;23;20223;-48
2023/07/11 01:41:23;;;;;;;4.72;2.65;;;;;;;13.89;100.00;101683.56;4994350;28;20221;-48
2023/07/11 01:43:49;;;;;;;5.57;2.67;;;;;;;13.80;100.00;101674.03;5015540;28;20246;-47
2023/07/11 01:46:15;;;;;;;6.55;2.58;;;;;;;13.79;100.00;101670.41;4998617;28;20188;-47
2023/07/11 01:48:40;;;;;;;6.45;2.40;;;;;;;13.79;100.00;101688.41;4996742;28;20212;-46
2023/07/11 01:51:05;;;;;;;3.72;2.53;;;;;;;13.67;100.00;101688.88;4991601;28;20287;-48
2023/07/11 01:53:31;;;;;;;7.55;2.65;;;;;;;13.66;100.00;101684.41;5008701;28;20231;-48
2023/07/11 01:55:59;;;;;;;4.88;2.20;;;;;;;13.72;100.00;101681.50;4995750;28;20232;-48
2023/07/11 01:58:25;;;;;;;6.97;2.95;;;;;;;13.66;100.00;101679.03;4999098;28;20177;-48
2023/07/11 02:00:51;;;;;;;3.75;2.55;;;;;;;13.58;100.00;101674.81;5003961;28;20185;-48
2023/07/11 02:03:16;;;;;;;5.90;2.95;;;;;;;13.45;100.00;101676.22;4992438;28;20271;-48
2023/07/11 02:05:42;;;;;;;6.50;2.83;;;;;;;13.54;100.00;101673.19;4996466;28;20201;-50
2023/07/11 02:08:07;;;;;;;5.15;2.47;;;;;;;13.57;100.00;101664.97;5005013;28;20319;-49
2023/07/11 02:10:33;;;;;;;7.28;2.50;;;;;;;13.51;100.00;101661.63;5011438;28;20196;-48
2023/07/11 02:12:58;;;;;;;7.78;2.90;;;;;;;13.49;100.00;101669.78;4989819;28;20193;-48
2023/07/11 02:15:24;;;;;;;9.15;3.63;;;;;;;13.43;100.00;101677.22;4994436;28;20200;-48
2023/07/11 02:17:49;;;;;;;6.78;3.20;;;;;;;13.37;100.00;101664.84;4995687;28;20196;-48
2023/07/11 02:20:15;;;;;;;5.95;2.90;;;;;;;13.42;100.00;101665.53;4994732;28;20179;-47
2023/07/11 02:22:41;;;;;;;3.83;2.53;;;;;;;13.46;100.00;101663.63;4994873;28;20182;-49
2023/07/11 02:25:07;;;;;;;5.57;2.67;;;;;;;13.43;100.00;101656.53;4992078;28;20408;-50
2023/07/11 02:27:32;;;;;;;4.30;2.83;;;;;;;13.44;100.00;101650.22;4997381;28;20185;-47
2023/07/11 02:29:57;;;;;;;7.28;3.03;;;;;;;13.35;100.00;101653.25;4993758;28;20190;-49
2023/07/11 02:32:23;;;;;;;5.00;3.20;;;;;;;13.16;100.00;101653.91;4995892;28;20287;-48
2023/07/11 02:34:49;;;;;;;8.10;2.60;;;;;;;13.28;100.00;101643.63;4998827;28;20283;-48
2023/07/11 02:37:14;;;;;;;5.45;3.25;;;;;;;13.39;100.00;101641.44;5001989;28;20174;-47
2023/07/11 02:39:39;;;;;;;5.18;2.35;;;;;;;13.31;100.00;101643.53;5000888;28;20236;-48
2023/07/11 02:42:05;;;;;;;4.35;2.50;;;;;;;13.29;100.00;101634.63;4998264;28;20188;-48
2023/07/11 02:44:30;;;;;;;4.25;2.70;;;;;;;13.30;100.00;101631.88;4997809;28;20209;-47
2023/07/11 02:46:56;;;;;;;4.63;2.30;;;;;;;13.26;100.00;101638.28;4998614;28;20173;-48
2023/07/11 02:49:21;;;;;;;3.60;2.53;;;;;;;13.19;100.00;101637.63;4996764;28;20644;-50
2023/07/11 02:51:47;;;;;;;5.93;2.35;;;;;;;13.19;100.00;101628.69;4997357;28;20181;-48
2023/07/11 02:54:12;;;;;;;5.40;2.50;;;;;;;13.18;100.00;101630.50;4997248;28;20213;-49
2023/07/11 02:56:38;;;;;;;8.00;2.85;;;;;;;13.19;100.00;101632.25;5002274;28;20180;-48
2023/07/11 02:59:03;;;;;;;5.25;2.60;;;;;;;13.16;100.00;101623.41;5003049;28;20173;-48
2023/07/11 03:01:34;;;;;;;8.32;2.80;;;;;;;13.16;100.00;101627.00;4997695;28;20177;-48
2023/07/11 03:03:59;;;;;;;6.28;2.65;;;;;;;13.12;100.00;101628.03;4995214;28;20165;-47
2023/07/11 03:06:25;;;;;;;10.50;2.92;;;;;;;13.02;100.00;101636.47;4999539;28;20197;-49
2023/07/11 03:08:50;;;;;;;7.20;2.65;;;;;;;13.04;100.00;101626.53;4995504;28;20563;-49
2023/07/11 03:11:16;;;;;;;7.88;2.95;;;;;;;12.95;100.00;101630.44;4998458;28;20541;-47
2023/07/11 03:13:42;;;;;;;10.40;3.08;;;;;;;13.01;100.00;101632.00;4999329;28;20193;-48
2023/07/11 03:16:08;;;;;;;6.95;2.42;;;;;;;13.06;100.00;101630.94;4996214;28;20357;-47
2023/07/11 03:18:33;;;;;;;6.53;2.50;;;;;;;13.14;100.00;101627.94;4993168;28;20196;-47
2023/07/11 03:21:00;;;;;;;7.28;2.78;;;;;;;13.13;100.00;101624.38;4993856;28;20184;-49
2023/07/11 03:23:27;;;;;;;6.00;3.13;;;;;;;13.14;100.00;101619.88;4995359;28;20190;-48
2023/07/11 03:25:53;;;;;;;6.93;3.10;;;;;;;12.98;100.00;101617.75;4998289;28;20208;-49
2023/07/11 03:28:18;;;;;;;7.40;2.95;;;;;;;13.07;100.00;101629.13;5000994;28;20217;-48
2023/07/11 03:30:44;;;;;;;5.68;2.80;;;;;;;13.05;100.00;101617.53;5000059;28;20311;-47
2023/07/11 03:33:10;;;;;;;6.57;2.85;;;;;;;12.80;100.00;101621.09;5000038;28;20655;-49
2023/07/11 03:35:35;;;;;;;6.32;3.17;;;;;;;12.89;100.00;101614.50;4986405;28;20754;-47
2023/07/11 03:38:01;;;;;;;8.27;2.70;;;;;;;12.97;100.00;101604.38;5001472;28;20188;-48
2023/07/11 03:40:27;;;;;;;5.68;2.70;;;;;;;13.02;100.00;101606.88;5002474;28;20654;-48
2023/07/11 03:42:52;;;;;;;4.57;2.75;;;;;;;13.10;100.00;101603.00;5001478;28;20655;-47
2023/07/11 03:45:18;;;;;;;5.63;3.03;;;;;;;13.06;100.00;101603.16;4999898;28;20200;-49
2023/07/11 03:47:43;;;;;;;6.30;2.90;;;;;;;13.14;100.00;101599.25;5000579;28;20177;-50
2023/07/11 03:50:09;;;;;;;6.75;2.90;;;;;;;13.23;100.00;101595.34;4998285;28;20547;-47
2023/07/11 03:52:35;;;;;;;6.05;2.90;;;;;;;13.26;100.00;101595.22;4997682;28;20185;-47
2023/07/11 03:55:01;;;;;;;8.10;2.80;;;;;;;13.31;100.00;101597.78;5000059;28;20700;-48
2023/07/11 03:57:26;;;;;;;8.55;3.30;;;;;;;13.30;100.00;101583.44;5003965;28;20188;-49
2023/07/11 03:59:52;;;;;;;6.60;3.13;;;;;;;13.29;100.00;101583.50;4997778;28;20538;-47
2023/07/11 04:02:17;;;;;;;11.25;3.38;;;;;;;13.26;100.00;101584.47;5002041;28;20174;-48
2023/07/11 04:04:43;;;;;;;5.15;3.30;;;;;;;13.34;100.00;101576.16;5001147;28;20212;-48
2023/07/11 04:07:09;;;;;;;7.25;3.10;;;;;;;13.43;100.00;101572.22;5001505;28;20326;-48
2023/07/11 04:09:34;;;;;;;8.20;3.10;;;;;;;13.54;100.00;101570.88;5003433;28;20204;-47
2023/07/11 04:12:00;;;;;;;7.13;2.75;;;;;;;13.65;100.00;101570.44;4999799;28;20603;-46
2023/07/11 04:14:25;;;;;;;7.47;3.15;;;;;;;13.79;100.00;101577.97;4999909;28;20207;-48
2023/07/11 04:16:51;;;;;;;3.83;2.63;;;;;;;13.90;100.00;101575.72;4998420;28;20209;-49
2023/07/11 04:19:16;;;;;;;10.85;2.95;;;;;;;14.01;100.00;101576.19;5004198;28;20233;-48
2023/07/11 04:21:42;;;;;;;6.90;3.03;;;;;;;14.10;100.00;101577.63;4995458;28;20181;-48
2023/07/11 04:24:07;;;;;;;5.32;2.55;;;;;;;14.15;100.00;101574.75;5000806;28;20267;-47
2023/07/11 04:26:33;;;;;;;9.77;3.42;;;;;;;14.09;100.00;101575.00;4997051;28;20180;-47
2023/07/11 04:28:58;;;;;;;8.43;3.47;;;;;;;14.07;100.00;101585.81;4998497;28;20219;-48
2023/07/11 04:31:26;;;;;;;9.85;3.30;;;;;;;14.17;100.00;101580.94;4997249;28;20351;-47
2023/07/11 04:33:51;;;;;;;7.68;2.80;;;;;;;14.20;100.00;101584.38;5003412;28;20185;-49
2023/07/11 04:36:17;;;;;;;6.70;2.60;;;;;;;14.31;100.00;101578.53;5000302;28;20200;-48
2023/07/11 04:38:43;;;;;;;9.13;3.13;;;;;;;14.30;100.00;101571.41;5006503;28;20268;-48
2023/07/11 04:41:10;;;;;;;5.80;3.10;;;;;;;14.39;100.00;101567.44;4999037;28;20203;-51
2023/07/11 04:43:36;;;;;;;8.63;3.15;;;;;;;14.50;100.00;101565.16;4998404;28;20177;-49
2023/07/11 04:46:03;;;;;;;9.68;2.60;;;;;;;14.65;100.00;101560.97;4996983;28;20209;-49
2023/07/11 04:48:29;;;;;;;9.95;3.25;;;;;;;14.79;100.00;101560.38;4997004;28;20263;-49
2023/07/11 04:51:07;;;;;;;10.43;2.80;;;;;;;14.97;100.00;101566.75;5001097;28;20192;-49
2023/07/11 04:53:33;;;;;;;6.90;2.47;;;;;;;15.10;100.00;101564.38;5002465;28;20693;-49
2023/07/11 04:56:04;;;;;;;6.38;2.58;;;;;;;15.21;100.00;101571.03;4995836;28;20684;-49
2023/07/11 04:58:30;;;;;;;12.10;2.92;;;;;;;15.30;100.00;101582.38;5012652;28;20234;-49
2023/07/11 05:01:04;;;;;;;8.40;2.90;;;;;;;15.38;100.00;101569.41;4995413;28;20251;-49
2023/07/11 05:03:30;;;;;;;6.78;2.42;;;;;;;15.58;100.00;101568.44;4996457;28;20223;-49
2023/07/11 05:05:57;;;;;;;7.47;2.75;;;;;;;15.75;100.00;101554.19;5014686;28;20200;-48
2023/07/11 05:08:23;;;;;;;10.60;2.75;;;;;;;15.89;100.00;101554.38;4997843;28;20189;-49
2023/07/11 05:10:58;;;;;;;10.27;2.20;;;;;;;16.12;100.00;101549.69;5017914;28;20639;-49
2023/07/11 05:13:24;;;;;;;6.57;2.28;;;;;;;16.17;100.00;101537.66;4996168;28;20192;-49
2023/07/11 05:15:50;;;;;;;10.63;2.75;;;;;;;16.26;100.00;101512.84;5000094;28;20189;-49
2023/07/11 05:18:18;;;;;;;11.40;2.45;;;;;;;16.34;100.00;101509.78;5000371;28;20173;-49
2023/07/11 05:20:43;;;;;;;7.68;2.40;;;;;;;16.47;100.00;101510.00;4999056;28;20515;-48
2023/07/11 05:23:08;;;;;;;9.57;2.50;;;;;;;16.61;100.00;101507.44;4999127;28;20189;-49
2023/07/11 05:25:37;;;;;;;9.35;2.30;;;;;;;16.73;100.00;101511.34;4997025;28;20220;-51
2023/07/11 05:28:03;;;;;;;9.95;2.92;;;;;;;16.80;100.00;101510.09;4997562;28;20181;-48
2023/07/11 05:30:29;;;;;;;6.72;2.20;;;;;;;16.96;100.00;101499.31;4999828;28;20209;-49
2023/07/11 05:32:55;;;;;;;12.18;1.98;;;;;;;17.21;100.00;101504.25;4999275;28;20216;-50
2023/07/11 05:35:20;;;;;;;6.57;2.08;;;;;;;17.33;100.00;101485.56;4998582;28;20220;-50
2023/07/11 05:37:46;;;;;;;10.68;2.40;;;;;;;17.34;100.00;101481.91;4999574;28;20238;-49
2023/07/11 05:40:11;;;;;;;5.43;2.00;;;;;;;17.40;100.00;101473.44;4997616;28;20181;-50
2023/07/11 05:42:37;;;;;;;9.25;2.00;;;;;;;17.53;100.00;101487.16;4995224;28;20268;-50
2023/07/11 05:45:02;;;;;;;6.25;2.05;;;;;;;17.53;100.00;101487.16;4997656;28;20469;-47
2023/07/11 05:47:28;;;;;;;8.07;2.03;;;;;;;17.46;100.00;101475.78;4995365;28;20310;-49
2023/07/11 05:49:53;;;;;;;7.57;2.05;;;;;;;17.40;100.00;101468.88;5015280;28;20220;-49
2023/07/11 05:52:19;;;;;;;8.57;1.92;;;;;;;17.52;100.00;101464.63;5001925;28;20264;-48
2023/07/11 05:54:44;;;;;;;4.80;1.92;;;;;;;17.72;99.14;101468.88;5014236;28;20288;-46
2023/07/11 05:57:10;;;;;;;5.78;1.90;;;;;;;17.87;97.70;101461.72;4993398;28;20188;-49
2023/07/11 05:59:35;;;;;;;6.93;1.90;;;;;;;18.09;96.52;101454.06;4997262;28;20187;-48
2023/07/11 06:02:01;;;;;;;5.93;1.80;;;;;;;18.07;94.76;101449.69;4999226;28;20721;-49
2023/07/11 06:04:26;;;;;;;6.22;1.95;;;;;;;18.24;94.12;101459.53;4998939;28;20197;-51
2023/07/11 06:06:52;;;;;;;6.35;1.60;;;;;;;18.36;92.94;101449.78;4997725;28;20188;-49
2023/07/11 06:09:20;;;;;;;6.45;1.80;;;;;;;18.32;92.22;101441.84;5001507;28;20244;-48
2023/07/11 06:11:48;;;;;;;5.57;1.65;;;;;;;18.46;91.47;101434.69;4996612;28;20641;-50
2023/07/11 06:14:15;;;;;;;5.82;1.60;;;;;;;18.59;90.71;101418.53;4999805;28;20176;-51
2023/07/11 06:16:41;;;;;;;11.95;1.92;;;;;;;18.56;89.72;101411.41;5003747;28;20176;-50
2023/07/11 06:19:07;;;;;;;10.63;1.73;;;;;;;18.48;89.39;101408.31;5003229;28;20185;-50
2023/07/11 06:21:33;;;;;;;10.15;2.30;;;;;;;18.37;89.96;101409.00;5000690;28;20211;-48
2023/07/11 06:23:59;;;;;;;6.63;1.80;;;;;;;18.22;90.51;101418.94;5001758;28;20265;-47
2023/07/11 06:26:24;;;;;;;5.65;1.65;;;;;;;18.50;91.30;101418.13;5001569;28;20220;-49
2023/07/11 06:28:50;;;;;;;9.05;2.00;;;;;;;18.74;90.77;101426.56;5000008;28;20201;-52
2023/07/11 06:31:16;;;;;;;5.85;1.92;;;;;;;19.07;90.41;101419.97;5001899;28;20247;-49
2023/07/11 06:33:42;;;;;;;7.63;2.00;;;;;;;19.28;89.56;101408.69;5000116;28;20181;-50
2023/07/11 06:36:09;;;;;;;4.80;1.92;;;;;;;19.31;88.71;101403.06;5002259;28;20207;-50
2023/07/11 06:38:35;;;;;;;6.18;1.90;;;;;;;19.32;88.12;101407.50;5001431;28;20252;-50
2023/07/11 06:41:01;;;;;;;6.18;1.73;;;;;;;19.76;87.69;101404.56;4998597;28;20598;-49
2023/07/11 06:43:28;;;;;;;7.88;2.10;;;;;;;19.81;86.14;101408.81;5001936;28;20748;-47
2023/07/11 06:45:55;;;;;;;6.47;2.15;;;;;;;19.74;85.61;101395.66;5002113;28;20212;-49
2023/07/11 06:48:23;;;;;;;6.45;1.98;;;;;;;19.54;85.30;101391.50;5003015;28;20195;-47
2023/07/11 06:50:54;;;;;;;10.27;2.45;;;;;;;19.86;85.31;101391.22;5002619;28;20181;-52
2023/07/11 06:53:20;;;;;;;6.90;2.22;;;;;;;20.08;83.96;101396.06;4995978;28;20181;-50
2023/07/11 06:55:51;;;;;;;7.28;2.38;;;;;;;20.08;84.07;101385.16;5000544;28;20579;-49
2023/07/11 06:58:17;;;;;;;6.68;2.25;;;;;;;20.21;83.29;101379.75;5001225;28;20179;-48
2023/07/11 07:00:44;;;;;;;7.70;2.22;;;;;;;20.80;82.58;101379.22;5004962;28;20235;-48
2023/07/11 07:03:13;;;;;;;8.77;2.20;;;;;;;20.78;80.52;101362.97;4997750;28;20177;-50
2023/07/11 07:05:47;;;;;;;7.05;1.88;;;;;;;20.26;80.51;101350.34;5001579;28;20282;-48
2023/07/11 07:08:13;;;;;;;9.23;2.17;;;;;;;20.37;81.55;101365.91;4999564;28;20258;-47
2023/07/11 07:10:38;;;;;;;7.10;2.00;;;;;;;20.83;81.16;101359.91;5000107;28;20216;-48
2023/07/11 07:13:04;;;;;;;10.80;2.35;;;;;;;20.76;80.60;101350.47;5005807;28;20193;-48
2023/07/11 07:15:29;;;;;;;10.20;2.03;;;;;;;21.04;79.79;101351.16;5002641;28;20210;-46
2023/07/11 07:17:55;;;;;;;8.93;2.10;;;;;;;21.53;79.10;101350.22;5002974;28;20260;-48
2023/07/11 07:20:20;;;;;;;7.78;2.28;;;;;;;21.81;76.51;101330.75;4997614;28;20173;-48
2023/07/11 07:22:45;;;;;;;5.30;1.98;;;;;;;22.17;75.17;101328.88;4998455;28;20199;-49
2023/07/11 07:25:11;;;;;;;9.32;2.00;;;;;;;22.08;73.95;101317.78;4999720;28;20196;-50
2023/07/11 07:27:36;;;;;;;5.40;2.00;;;;;;;22.15;74.64;101321.75;5001464;28;20265;-49
2023/07/11 07:30:03;;;;;;;5.50;1.90;;;;;;;22.11;73.23;101314.84;4999426;28;20204;-48
2023/07/11 07:32:29;;;;;;;4.47;1.75;;;;;;;22.47;72.28;101310.16;4997401;28;20197;-46
2023/07/11 07:34:54;;;;;;;6.93;2.00;;;;;;;22.53;70.80;101306.94;4998130;28;20196;-48
2023/07/11 07:37:20;;;;;;;11.30;2.10;;;;;;;23.23;70.90;101308.47;4995760;28;20251;-49
2023/07/11 07:39:45;;;;;;;6.97;1.80;;;;;;;23.43;68.44;101296.69;5012282;23;20255;-86
2023/07/11 07:42:11;;;;;;;7.85;2.00;;;;;;;23.39;68.16;101297.97;5012886;28;20267;-85
2023/07/11 07:44:36;;;;;;;4.95;1.90;;;;;;;23.27;67.81;101284.47;4998422;28;20215;-86
2023/07/11 07:47:02;;;;;;;7.10;1.80;;;;;;;23.24;66.78;101285.59;4992312;28;20785;-86
2023/07/11 07:49:27;;;;;;;7.35;2.00;;;;;;;22.95;66.95;101288.00;4992840;28;20684;-86
2023/07/11 07:51:53;;;;;;;6.45;2.30;;;;;;;23.08;67.31;101282.44;4993570;28;20196;-85
2023/07/11 07:54:19;;;;;;;6.07;1.92;;;;;;;23.40;67.66;101287.91;4992081;28;20292;-86
2023/07/11 07:56:44;;;;;;;6.18;2.15;;;;;;;22.94;66.50;101270.75;4988511;28;20253;-86
2023/07/11 07:59:10;;;;;;;7.40;1.90;;;;;;;22.89;65.29;101269.38;4987667;28;20185;-86
2023/07/11 08:01:35;;;;;;;8.85;2.30;;;;;;;23.09;65.83;101267.75;4994696;28;20185;-86
2023/07/11 08:04:01;;;;;;;14.68;2.25;;;;;;;23.48;65.11;101262.63;4998006;28;20780;-86
2023/07/11 08:06:27;;;;;;;7.32;1.85;;;;;;;23.70;64.49;101256.16;4986644;28;20267;-86
2023/07/11 08:08:53;;;;;;;5.85;2.00;;;;;;;23.89;63.19;101250.84;4987310;28;20204;-86
2023/07/11 08:11:21;;;;;;;7.57;1.65;;;;;;;23.51;63.42;101254.16;4997296;28;20300;-85
2023/07/11 08:13:46;;;;;;;9.20;2.00;;;;;;;23.77;63.02;101251.94;4980394;28;20196;-86
2023/07/11 08:16:12;;;;;;;4.78;1.73;;;;;;;24.01;62.96;101246.19;4995941;28;20199;-86
2023/07/11 08:18:38;;;;;;;3.20;1.50;;;;;;;23.73;62.38;101244.97;4982469;28;20220;-86
2023/07/11 08:21:03;;;;;;;7.22;1.90;;;;;;;23.60;63.24;101231.50;4978203;28;20252;-86
2023/07/11 08:23:29;;;;;;;5.65;2.08;;;;;;;24.08;63.11;101232.81;4987428;28;20181;-88
2023/07/11 08:25:55;;;;;;;5.57;1.90;;;;;;;23.75;62.35;101232.03;4985265;28;20257;-86
2023/07/11 08:28:21;;;;;;;5.65;1.63;;;;;;;23.78;63.13;101238.09;4995710;28;20200;-86
2023/07/11 08:30:47;;;;;;;7.68;2.10;;;;;;;24.12;62.72;101226.94;4999857;28;20185;-85
2023/07/11 08:33:13;;;;;;;8.63;1.80;;;;;;;23.83;62.77;101230.38;5001144;28;20212;-85
2023/07/11 08:35:38;;;;;;;5.28;2.00;;;;;;;23.80;62.57;101225.16;4975257;28;20231;-87
2023/07/11 08:38:11;;;;;;;7.97;2.22;;;;;;;23.49;61.77;101209.69;4994025;28;20279;-87
2023/07/11 08:40:41;;;;;;;5.25;1.75;;;;;;;24.13;62.08;101217.69;4997782;28;20814;-87
2023/07/11 08:43:09;;;;;;;5.40;1.98;;;;;;;24.25;60.76;101211.13;4992742;28;20215;-87
2023/07/11 08:45:56;;;;;;;6.57;1.98;;;;;;;24.70;59.86;101211.72;4991054;28;20714;-87
2023/07/11 08:48:27;;;;;;;4.85;1.70;;;;;;;24.63;58.77;101200.44;4991796;28;20215;-87
2023/07/11 08:51:10;;;;;;;4.07;2.05;;;;;;;25.00;59.69;101214.34;4980789;28;20176;-87
2023/07/11 08:53:45;;;;;;;5.00;1.75;;;;;;;25.14;57.76;101180.13;5005642;28;20230;-86
2023/07/11 08:56:27;;;;;;;5.95;1.85;;;;;;;25.20;56.82;101170.50;4997582;28;20174;-86
2023/07/11 08:58:53;;;;;;;5.82;1.77;;;;;;;25.54;56.83;101168.16;4991185;28;20724;-87
2023/07/11 09:01:35;;;;;;;4.43;1.73;;;;;;;25.80;56.05;101171.13;4991537;28;20191;-87
2023/07/11 09:04:03;;;;;;;5.75;1.80;;;;;;;25.97;55.57;101154.91;4977931;28;20626;-86
2023/07/11 09:06:52;;;;;;;6.88;1.67;;;;;;;26.10;54.20;101145.28;4991039;28;20671;-85
2023/07/11 09:09:18;;;;;;;5.93;2.00;;;;;;;26.34;54.36;101141.09;4994740;28;20208;-86
2023/07/11 09:12:33;;;;;;;5.20;1.48;;;;;;;26.36;54.71;101136.31;4991699;28;20177;-86
2023/07/11 09:15:25;;;;;;;3.55;1.90;;;;;;;26.08;54.22;101127.22;4978809;28;20232;-87
2023/07/11 09:22:06;;;;;;;4.35;1.45;;;;;;;26.29;54.43;101125.09;4966689;28;20590;-45
2023/07/11 09:25:07;;;;;;;7.97;2.10;;;;;;;26.71;53.51;101124.53;4969577;28;20241;-44
2023/07/11 09:27:39;;;;;;;6.40;1.92;;;;;;;26.68;52.84;101116.59;4973043;28;20530;-48
2023/07/11 09:30:41;;;;;;;5.25;1.90;;;;;;;26.41;52.55;101100.13;4967081;28;20210;-46
2023/07/11 09:33:14;;;;;;;5.75;1.70;;;;;;;26.06;51.37;101090.81;4956011;28;20227;-46
2023/07/11 09:35:43;;;;;;;6.97;1.90;;;;;;;26.30;51.26;101084.75;4968687;28;20201;-47
2023/07/11 09:38:18;;;;;;;4.88;2.05;;;;;;;26.47;50.32;101080.28;4968947;28;20185;-46
2023/07/11 09:40:47;;;;;;;8.40;1.95;;;;;;;26.80;50.27;101077.88;4968757;28;20177;-46
2023/07/11 09:43:13;;;;;;;5.28;1.95;;;;;;;26.99;50.05;101066.69;4969113;28;20392;-51
2023/07/11 09:45:42;;;;;;;6.13;2.20;;;;;;;27.60;48.98;101064.03;4970384;28;20627;-48
2023/07/11 09:48:12;;;;;;;5.30;1.98;;;;;;;27.15;49.11;101059.59;4972601;28;20232;-49
2023/07/11 09:50:50;;;;;;;5.50;1.67;;;;;;;27.30;50.08;101071.75;4972753;28;20192;-47
2023/07/11 09:53:20;;;;;;;4.82;1.90;;;;;;;27.39;48.63;101062.53;4972728;28;20603;-46
2023/07/11 09:55:52;;;;;;;6.22;2.17;;;;;;;27.04;48.42;101039.56;4972200;28;20753;-51
2023/07/11 09:58:17;;;;;;;5.22;1.85;;;;;;;27.24;48.18;101036.63;4973513;28;20193;-49
2023/07/11 10:00:46;;;;;;;2.72;1.45;;;;;;;27.61;47.56;101027.22;4972901;28;20283;-47
2023/07/11 10:03:25;;;;;;;5.63;1.90;;;;;;;27.44;47.99;101023.50;4979202;28;20216;-49
2023/07/11 10:05:52;;;;;;;5.60;1.92;;;;;;;27.52;48.30;101035.41;4971559;28;20236;-54
2023/07/11 10:08:19;;;;;;;7.63;1.85;;;;;;;27.32;47.47;101021.03;4975411;28;20232;-51
2023/07/11 10:10:56;;;;;;;3.40;1.73;;;;;;;27.31;47.60;101016.59;4972773;28;20201;-54
2023/07/11 10:13:22;;;;;;;4.25;1.88;;;;;;;27.31;46.58;101007.44;4972073;28;20256;-49
2023/07/11 10:15:51;;;;;;;4.03;1.70;;;;;;;27.28;46.22;100999.53;4972526;28;20205;-48
2023/07/11 10:18:29;;;;;;;4.32;2.15;;;;;;;27.00;45.60;100990.56;4971939;28;20548;-49
2023/07/11 10:21:13;;;;;;;3.40;1.90;;;;;;;27.58;45.61;100989.88;4972535;28;20202;-48
2023/07/11 10:23:42;;;;;;;5.85;1.83;;;;;;;27.60;45.54;100997.97;4972191;28;20240;-48
2023/07/11 10:26:10;;;;;;;3.13;1.90;;;;;;;27.66;44.37;100984.41;4971637;28;20205;-49
2023/07/11 10:28:43;;;;;;;2.92;1.60;;;;;;;27.68;45.42;100997.97;4974893;28;20229;-51
2023/07/11 10:31:14;;;;;;;5.97;1.55;;;;;;;27.53;45.60;100984.00;4974109;28;20189;-48
2023/07/11 10:34:07;;;;;;;2.10;1.33;;;;;;;27.84;45.61;100988.94;4972581;28;20480;-54
2023/07/11 10:36:37;;;;;;;4.43;1.55;;;;;;;28.04;44.79;100984.88;4971887;28;20216;-53
2023/07/11 10:39:15;;;;;;;6.43;1.77;;;;;;;27.72;44.67;100966.34;4970585;28;20169;-50
2023/07/11 10:41:57;;;;;;;5.38;1.58;;;;;;;27.41;44.76;100966.06;4972697;28;20205;-49
2023/07/11 10:44:30;;;;;;;5.63;1.80;;;;;;;27.71;44.49;100968.25;4975663;28;20236;-48
2023/07/11 10:46:56;;;;;;;4.07;1.40;;;;;;;27.71;44.68;100959.13;4972144;28;20173;-46
2023/07/11 10:49:28;;;;;;;2.28;1.50;;;;;;;27.99;43.91;100940.47;4972290;28;21838;-46
2023/07/11 10:52:21;;;;;;;3.15;1.67;;;;;;;27.92;44.04;100940.28;4969805;28;20181;-48
2023/07/11 10:54:50;;;;;;;4.43;1.92;;;;;;;28.30;43.33;100934.28;4965988;28;20220;-46
2023/07/11 10:57:31;;;;;;;3.40;1.63;;;;;;;28.30;43.63;100928.78;4969787;28;20177;-45
2023/07/11 10:59:57;;;;;;;5.47;2.15;;;;;;;28.40;42.95;100923.94;4970560;28;20189;-46
2023/07/11 11:02:37;;;;;;;5.43;2.28;;;;;;;28.02;43.14;100925.47;4972925;28;20189;-47
2023/07/11 11:05:35;;;;;;;4.22;1.60;;;;;;;27.52;43.67;100918.97;4971992;28;20287;-50
2023/07/11 11:08:10;;;;;;;2.95;1.50;;;;;;;27.82;43.53;100912.00;4970967;28;20194;-49
2023/07/11 11:10:41;;;;;;;2.13;1.45;;;;;;;27.70;43.50;100916.97;4970348;28;20701;-48
2023/07/11 11:13:28;;;;;;;3.83;1.42;;;;;;;28.09;42.88;100908.09;4970572;28;20663;-49
2023/07/11 11:16:23;;;;;;;3.17;1.48;;;;;;;28.07;42.82;100914.81;4974037;28;20599;-45
2023/07/11 11:18:52;;;;;;;6.43;1.60;;;;;;;28.11;42.79;100917.03;4969310;28;20182;-50
2023/07/11 11:21:45;;;;;;;3.92;1.65;;;;;;;27.83;43.46;100913.69;4973592;28;20197;-50
2023/07/11 11:24:42;;;;;;;3.92;1.77;;;;;;;27.58;42.75;100888.03;4970635;28;20197;-45
2023/07/11 11:27:47;;;;;;;2.42;1.73;;;;;;;28.00;43.03;100903.63;4975781;28;20272;-49
2023/07/11 11:30:42;;;;;;;2.80;1.60;;;;;;;28.36;42.67;100895.03;4973205;28;20614;-46